createdAt,value
2022-11-22T00:01:06.340Z,100.00
2022-11-22T00:03:32.826Z,100.00
2022-11-22T00:05:59.605Z,100.00
2022-11-22T00:08:26.146Z,100.00
2022-11-22T00:10:52.696Z,100.00
2022-11-22T00:13:19.297Z,100.00
2022-11-22T00:15:45.805Z,100.00
2022-11-22T00:18:12.288Z,100.00
2022-11-22T00:20:38.787Z,100.00
2022-11-22T00:23:05.284Z,100.00
2022-11-22T00:25:31.775Z,100.00
2022-11-22T00:27:58.239Z,100.00
2022-11-22T00:30:24.731Z,100.00
2022-11-22T00:32:51.248Z,100.00
2022-11-22T00:35:17.743Z,100.00
2022-11-22T00:37:44.232Z,100.00
2022-11-22T00:40:10.967Z,100.00
2022-11-22T00:42:37.459Z,100.00
2022-11-22T00:45:04.184Z,100.00
2022-11-22T00:47:30.691Z,100.00
2022-11-22T00:49:57.164Z,100.00
2022-11-22T00:52:23.650Z,100.00
2022-11-22T00:54:54.475Z,100.00
2022-11-22T00:57:21.578Z,100.00
2022-11-22T00:59:48.044Z,100.00
2022-11-22T01:02:14.532Z,100.00
2022-11-22T01:04:41.053Z,100.00
2022-11-22T01:07:07.588Z,100.00
2022-11-22T01:09:34.123Z,100.00
2022-11-22T01:12:00.606Z,100.00
2022-11-22T01:14:27.076Z,100.00
2022-11-22T01:16:53.583Z,100.00
2022-11-22T01:19:20.068Z,100.00
2022-11-22T01:21:46.546Z,100.00
2022-11-22T01:24:13.086Z,100.00
2022-11-22T01:26:39.607Z,100.00
2022-11-22T01:29:06.883Z,100.00
2022-11-22T01:31:33.387Z,100.00
2022-11-22T01:33:59.997Z,100.00
2022-11-22T01:36:27.328Z,100.00
2022-11-22T01:38:53.816Z,100.00
2022-11-22T01:41:20.386Z,100.00
2022-11-22T01:43:46.866Z,100.00
2022-11-22T01:46:37.397Z,100.00
2022-11-22T01:49:25.305Z,100.00
2022-11-22T01:51:52.472Z,100.00
2022-11-22T01:54:21.514Z,100.00
2022-11-22T01:56:51.984Z,100.00
2022-11-22T01:59:19.706Z,100.00
2022-11-22T02:01:46.201Z,100.00
2022-11-22T02:04:13.732Z,100.00
2022-11-22T02:06:51.375Z,100.00
2022-11-22T02:09:17.839Z,100.00
2022-11-22T02:11:49.042Z,100.00
2022-11-22T02:14:15.638Z,100.00
2022-11-22T02:16:42.509Z,100.00
2022-11-22T02:19:54.863Z,100.00
2022-11-22T02:22:40.071Z,100.00
2022-11-22T02:25:23.721Z,100.00
2022-11-22T02:27:50.214Z,100.00
2022-11-22T02:30:16.776Z,100.00
2022-11-22T02:32:43.298Z,100.00
2022-11-22T02:35:23.784Z,100.00
2022-11-22T02:37:52.445Z,100.00
2022-11-22T02:40:18.941Z,100.00
2022-11-22T02:42:48.567Z,100.00
2022-11-22T02:45:15.106Z,100.00
2022-11-22T02:47:41.638Z,100.00
2022-11-22T02:50:08.440Z,100.00
2022-11-22T02:52:34.927Z,100.00
2022-11-22T02:55:01.398Z,100.00
2022-11-22T02:57:27.890Z,100.00
2022-11-22T02:59:54.375Z,100.00
2022-11-22T03:02:20.914Z,100.00
2022-11-22T03:04:47.394Z,100.00
2022-11-22T03:07:14.094Z,100.00
2022-11-22T03:09:40.602Z,100.00
2022-11-22T03:12:07.417Z,100.00
2022-11-22T03:14:33.896Z,100.00
2022-11-22T03:17:00.395Z,100.00
2022-11-22T03:19:26.873Z,100.00
2022-11-22T03:21:53.417Z,100.00
2022-11-22T03:24:20.264Z,100.00
2022-11-22T03:26:48.185Z,100.00
2022-11-22T03:29:14.863Z,100.00
2022-11-22T03:31:41.369Z,100.00
2022-11-22T03:34:08.949Z,100.00
2022-11-22T03:36:35.447Z,100.00
2022-11-22T03:39:01.963Z,100.00
2022-11-22T03:41:29.152Z,100.00
2022-11-22T03:43:55.699Z,100.00
2022-11-22T03:46:22.242Z,100.00
2022-11-22T03:48:48.778Z,100.00
2022-11-22T03:51:15.405Z,100.00
2022-11-22T03:53:41.917Z,100.00
2022-11-22T03:56:08.427Z,100.00
2022-11-22T03:58:35.038Z,100.00
2022-11-22T04:01:01.646Z,100.00
2022-11-22T04:03:28.236Z,100.00
2022-11-22T04:05:54.938Z,100.00
2022-11-22T04:08:21.413Z,100.00
2022-11-22T04:10:51.306Z,100.00
2022-11-22T04:13:18.221Z,100.00
2022-11-22T04:15:44.832Z,100.00
2022-11-22T04:18:12.014Z,100.00
2022-11-22T04:20:57.184Z,100.00
2022-11-22T04:23:26.226Z,100.00
2022-11-22T04:25:55.981Z,100.00
2022-11-22T04:28:40.474Z,100.00
2022-11-22T04:31:28.978Z,100.00
2022-11-22T04:33:55.447Z,100.00
2022-11-22T04:36:21.911Z,100.00
2022-11-22T04:38:48.398Z,100.00
2022-11-22T04:41:14.882Z,100.00
2022-11-22T04:43:59.930Z,100.00
2022-11-22T04:46:26.407Z,100.00
2022-11-22T04:48:52.877Z,100.00
2022-11-22T04:51:38.064Z,100.00
2022-11-22T04:54:04.610Z,100.00
2022-11-22T04:56:31.097Z,100.00
2022-11-22T04:58:57.570Z,100.00
2022-11-22T05:01:24.069Z,100.00
2022-11-22T05:03:50.574Z,100.00
2022-11-22T05:06:17.055Z,100.00
2022-11-22T05:08:43.545Z,100.00
2022-11-22T05:11:10.172Z,100.00
2022-11-22T05:13:38.405Z,100.00
2022-11-22T05:16:06.392Z,100.00
2022-11-22T05:18:32.873Z,100.00
2022-11-22T05:21:00.695Z,100.00
2022-11-22T05:23:45.872Z,100.00
2022-11-22T05:26:12.387Z,100.00
2022-11-22T05:28:39.153Z,100.00
2022-11-22T05:31:09.717Z,100.00
2022-11-22T05:33:37.797Z,100.00
2022-11-22T05:36:04.915Z,100.00
2022-11-22T05:38:31.510Z,100.00
2022-11-22T05:40:58.186Z,100.00
2022-11-22T05:43:24.752Z,100.00
2022-11-22T05:45:51.213Z,100.00
2022-11-22T05:48:17.978Z,100.00
2022-11-22T05:50:44.463Z,100.00
2022-11-22T05:53:11.299Z,100.00
2022-11-22T05:55:37.767Z,100.00
2022-11-22T05:58:04.235Z,100.00
2022-11-22T06:00:30.711Z,100.00
2022-11-22T06:03:01.661Z,100.00
2022-11-22T06:05:28.681Z,100.00
2022-11-22T06:07:58.615Z,100.00
2022-11-22T06:10:25.137Z,100.00
2022-11-22T06:12:51.624Z,100.00
2022-11-22T06:15:18.102Z,100.00
2022-11-22T06:17:44.648Z,100.00
2022-11-22T06:20:11.570Z,100.00
2022-11-22T06:22:38.098Z,100.00
2022-11-22T06:25:05.030Z,100.00
2022-11-22T06:27:31.562Z,100.00
2022-11-22T06:29:58.038Z,100.00
2022-11-22T06:32:24.542Z,100.00
2022-11-22T06:34:51.056Z,100.00
2022-11-22T06:37:17.566Z,100.00
2022-11-22T06:39:44.028Z,100.00
2022-11-22T06:42:10.499Z,100.00
2022-11-22T06:44:37.004Z,100.00
2022-11-22T06:47:03.496Z,100.00
2022-11-22T06:49:30.987Z,100.00
2022-11-22T06:51:57.642Z,100.00
2022-11-22T06:54:24.124Z,100.00
2022-11-22T06:56:50.611Z,100.00
2022-11-22T06:59:17.619Z,100.00
2022-11-22T07:01:44.204Z,100.00
2022-11-22T07:04:10.757Z,100.00
2022-11-22T07:06:38.588Z,100.00
2022-11-22T07:09:09.567Z,100.00
2022-11-22T07:11:36.265Z,100.00
2022-11-22T07:14:07.793Z,100.00
2022-11-22T07:16:35.471Z,100.00
2022-11-22T07:19:01.940Z,100.00
2022-11-22T07:21:28.474Z,100.00
2022-11-22T07:23:55.234Z,100.00
2022-11-22T07:26:22.866Z,100.00
2022-11-22T07:28:49.423Z,100.00
2022-11-22T07:31:16.625Z,100.00
2022-11-22T07:33:43.184Z,100.00
2022-11-22T07:36:17.611Z,100.00
2022-11-22T07:38:44.139Z,100.00
2022-11-22T07:41:10.667Z,100.00
2022-11-22T07:43:37.243Z,100.00
2022-11-22T07:46:08.239Z,100.00
2022-11-22T07:48:34.873Z,100.00
2022-11-22T07:51:05.755Z,100.00
2022-11-22T07:53:32.929Z,100.00
2022-11-22T07:56:06.067Z,100.00
2022-11-22T07:58:33.577Z,100.00
2022-11-22T08:01:14.345Z,100.00
2022-11-22T08:03:40.905Z,100.00
2022-11-22T08:06:08.408Z,100.00
2022-11-22T08:08:35.223Z,100.00
2022-11-22T08:11:01.825Z,100.00
2022-11-22T08:13:28.379Z,100.00
2022-11-22T08:15:56.747Z,100.00
2022-11-22T08:18:25.098Z,100.00
2022-11-22T08:20:51.576Z,100.00
2022-11-22T08:23:18.787Z,100.00
2022-11-22T08:25:45.271Z,100.00
2022-11-22T08:28:12.049Z,100.00
2022-11-22T08:30:38.590Z,100.00
2022-11-22T08:33:05.086Z,100.00
2022-11-22T08:35:31.571Z,100.00
2022-11-22T08:37:58.309Z,100.00
2022-11-22T08:40:24.847Z,100.00
2022-11-22T08:42:53.900Z,100.00
2022-11-22T08:45:20.391Z,100.00
2022-11-22T08:47:48.882Z,100.00
2022-11-22T08:50:16.110Z,100.00
2022-11-22T08:52:42.575Z,100.00
2022-11-22T08:55:09.235Z,100.00
2022-11-22T08:57:35.707Z,100.00
2022-11-22T09:00:02.366Z,100.00
2022-11-22T09:02:28.877Z,100.00
2022-11-22T09:04:55.355Z,100.00
2022-11-22T09:10:08.444Z,100.00
2022-11-22T09:12:34.931Z,100.00
2022-11-22T09:15:01.416Z,100.00
2022-11-22T09:17:27.891Z,100.00
2022-11-22T09:19:54.476Z,100.00
2022-11-22T09:22:25.355Z,100.00
2022-11-22T09:24:54.646Z,100.00
2022-11-22T09:27:21.119Z,100.00
2022-11-22T09:29:47.617Z,100.00
2022-11-22T09:32:14.127Z,100.00
2022-11-22T09:34:40.601Z,100.00
2022-11-22T09:37:07.076Z,100.00
2022-11-22T09:39:33.722Z,100.00
2022-11-22T09:42:23.124Z,100.00
2022-11-22T09:44:52.658Z,100.00
2022-11-22T09:47:36.909Z,100.00
2022-11-22T09:50:29.808Z,100.00
2022-11-22T09:53:03.021Z,100.00
2022-11-22T09:55:44.313Z,100.00
2022-11-22T09:58:11.486Z,100.00
2022-11-22T10:00:38.149Z,100.00
2022-11-22T10:03:19.556Z,100.00
2022-11-22T10:05:51.156Z,100.00
2022-11-22T10:08:20.441Z,100.00
2022-11-22T10:10:46.903Z,100.00
2022-11-22T10:13:19.955Z,100.00
2022-11-22T10:16:23.592Z,100.00
2022-11-22T10:18:56.830Z,100.00
2022-11-22T10:21:23.291Z,100.00
2022-11-22T10:23:49.787Z,100.00
2022-11-22T10:26:26.539Z,100.00
2022-11-22T10:28:55.876Z,100.00
2022-11-22T10:31:43.595Z,100.00
2022-11-22T10:34:13.906Z,100.00
2022-11-22T10:36:46.411Z,100.00
2022-11-22T10:39:16.172Z,100.00
2022-11-22T10:42:27.761Z,100.00
2022-11-22T10:45:06.484Z,100.00
2022-11-22T10:48:04.566Z,100.00
2022-11-22T10:51:04.587Z,100.00
2022-11-22T10:53:34.622Z,100.00
2022-11-22T10:56:19.839Z,100.00
2022-11-22T10:59:12.609Z,100.00
2022-11-22T11:01:44.638Z,100.00
2022-11-22T11:04:12.072Z,100.00
2022-11-22T11:07:11.819Z,100.00
2022-11-22T11:10:10.766Z,100.00
2022-11-22T11:12:59.367Z,100.00
2022-11-22T11:15:38.201Z,100.00
2022-11-22T11:18:08.725Z,100.00
2022-11-22T11:20:37.172Z,100.00
2022-11-22T11:23:18.950Z,100.00
2022-11-22T11:25:46.303Z,100.00
2022-11-22T11:28:24.362Z,100.00
2022-11-22T11:31:09.611Z,100.00
2022-11-22T11:33:38.339Z,100.00
2022-11-22T11:36:22.124Z,100.00
2022-11-22T11:38:55.642Z,100.00
2022-11-22T11:41:32.761Z,100.00
2022-11-22T11:44:00.702Z,100.00
2022-11-22T11:46:28.403Z,100.00
2022-11-22T11:49:09.100Z,99.75
2022-11-22T11:51:46.279Z,98.14
2022-11-22T11:54:17.587Z,99.14
2022-11-22T11:56:46.679Z,99.00
2022-11-22T11:59:23.713Z,99.73
2022-11-22T12:02:14.623Z,96.61
2022-11-22T12:04:59.569Z,97.23
2022-11-22T12:07:27.661Z,96.58
2022-11-22T12:09:55.596Z,98.21
2022-11-22T12:12:45.243Z,98.24
2022-11-22T12:15:32.866Z,98.35
2022-11-22T12:18:03.759Z,98.38
2022-11-22T12:20:41.944Z,99.64
2022-11-22T12:23:20.452Z,99.93
2022-11-22T12:25:46.938Z,100.00
2022-11-22T12:28:26.677Z,100.00
2022-11-22T12:30:54.311Z,100.00
2022-11-22T12:33:26.976Z,100.00
2022-11-22T12:35:53.943Z,100.00
2022-11-22T12:38:40.506Z,100.00
2022-11-22T12:41:09.464Z,100.00
2022-11-22T12:44:05.931Z,100.00
2022-11-22T12:46:40.012Z,100.00
2022-11-22T12:49:30.025Z,100.00
2022-11-22T12:51:58.196Z,100.00
2022-11-22T12:54:38.187Z,100.00
2022-11-22T12:57:13.315Z,100.00
2022-11-22T13:00:29.637Z,100.00
2022-11-22T13:03:05.747Z,100.00
2022-11-22T13:05:54.125Z,100.00
2022-11-22T13:08:42.932Z,100.00
2022-11-22T13:11:35.838Z,100.00
2022-11-22T13:14:07.541Z,100.00
2022-11-22T13:16:34.120Z,100.00
2022-11-22T13:19:02.743Z,100.00
2022-11-22T13:22:04.570Z,100.00
2022-11-22T13:24:49.692Z,100.00
2022-11-22T13:27:25.809Z,100.00
2022-11-22T13:29:54.626Z,100.00
2022-11-22T13:32:23.450Z,100.00
2022-11-22T13:35:01.802Z,100.00
2022-11-22T13:37:28.887Z,100.00
2022-11-22T13:39:55.358Z,100.00
2022-11-22T13:42:30.854Z,100.00
2022-11-22T13:44:57.232Z,100.00
2022-11-22T13:47:23.648Z,100.00
2022-11-22T13:49:50.920Z,100.00
2022-11-22T13:52:17.260Z,100.00
2022-11-22T13:54:46.784Z,100.00
2022-11-22T13:57:34.665Z,100.00
2022-11-22T14:00:16.002Z,100.00
2022-11-22T14:02:48.406Z,100.00
2022-11-22T14:05:21.639Z,100.00
2022-11-22T14:07:52.386Z,100.00
2022-11-22T14:10:46.648Z,100.00
2022-11-22T14:13:19.098Z,100.00
2022-11-22T14:16:13.038Z,100.00
2022-11-22T14:19:07.501Z,100.00
2022-11-22T14:21:42.739Z,100.00
2022-11-22T14:24:37.055Z,100.00
2022-11-22T14:27:09.514Z,100.00
2022-11-22T14:29:53.871Z,100.00
2022-11-22T14:32:24.467Z,100.00
2022-11-22T14:35:08.209Z,100.00
2022-11-22T14:37:42.287Z,99.26
2022-11-22T14:40:09.679Z,98.82
2022-11-22T14:42:36.231Z,98.62
2022-11-22T14:45:04.383Z,98.01
2022-11-22T14:47:30.889Z,98.00
2022-11-22T14:49:57.435Z,98.41
2022-11-22T14:52:25.383Z,98.45
2022-11-22T14:55:01.947Z,97.79
2022-11-22T14:57:29.564Z,97.45
2022-11-22T15:00:21.627Z,98.45
2022-11-22T15:03:09.736Z,99.67
2022-11-22T15:09:11.958Z,100.00
2022-11-22T15:09:23.874Z,100.00
2022-11-22T15:11:56.063Z,100.00
2022-11-22T15:14:40.902Z,100.00
2022-11-22T15:57:32.156Z,100.00
2022-11-22T15:59:58.728Z,100.00
2022-11-22T16:02:29.518Z,100.00
2022-11-22T16:06:10.196Z,100.00
2022-11-22T16:07:55.532Z,100.00
2022-11-22T16:10:23.884Z,100.00
2022-11-22T16:12:50.921Z,100.00
2022-11-22T16:15:35.911Z,100.00
2022-11-22T16:18:27.460Z,100.00
2022-11-22T16:21:19.216Z,100.00
2022-11-22T16:23:45.817Z,100.00
2022-11-22T16:26:21.973Z,100.00
2022-11-22T16:28:54.430Z,100.00
2022-11-22T16:31:25.709Z,100.00
2022-11-22T16:33:52.819Z,100.00
2022-11-22T16:36:19.933Z,100.00
2022-11-22T16:38:46.444Z,100.00
2022-11-22T16:41:20.669Z,100.00
2022-11-22T16:43:49.334Z,100.00
2022-11-22T16:46:15.812Z,100.00
2022-11-22T16:48:42.864Z,100.00
2022-11-22T16:51:13.776Z,100.00
2022-11-22T16:53:42.316Z,100.00
2022-11-22T16:56:15.154Z,100.00
2022-11-22T16:58:41.623Z,100.00
2022-11-22T17:01:11.701Z,100.00
2022-11-22T17:03:38.445Z,100.00
2022-11-22T17:06:04.987Z,100.00
2022-11-22T17:08:31.489Z,100.00
2022-11-22T17:10:58.039Z,100.00
2022-11-22T17:13:25.636Z,100.00
2022-11-22T17:15:52.937Z,100.00
2022-11-22T17:18:19.429Z,100.00
2022-11-22T17:20:46.386Z,100.00
2022-11-22T17:23:15.643Z,100.00
2022-11-22T17:25:42.361Z,100.00
2022-11-22T17:28:08.821Z,100.00
2022-11-22T17:30:35.475Z,100.00
2022-11-22T17:33:01.956Z,100.00
2022-11-22T17:35:32.176Z,100.00
2022-11-22T17:38:02.311Z,100.00
2022-11-22T17:40:28.862Z,100.00
2022-11-22T17:42:55.385Z,100.00
2022-11-22T17:45:21.855Z,100.00
2022-11-22T17:47:48.320Z,100.00
2022-11-22T17:50:15.103Z,100.00
2022-11-22T17:52:41.612Z,100.00
2022-11-22T17:55:13.077Z,100.00
2022-11-22T17:57:41.207Z,100.00
2022-11-22T18:00:08.084Z,100.00
2022-11-22T18:02:34.724Z,100.00
2022-11-22T18:05:04.454Z,100.00
2022-11-22T18:07:31.087Z,100.00
2022-11-22T18:09:57.609Z,100.00
2022-11-22T18:12:24.077Z,100.00
2022-11-22T18:14:50.622Z,100.00
2022-11-22T18:17:17.170Z,100.00
2022-11-22T18:19:43.777Z,100.00
2022-11-22T18:22:10.484Z,100.00
2022-11-22T18:24:36.955Z,100.00
2022-11-22T18:27:03.466Z,100.00
2022-11-22T18:29:45.349Z,100.00
2022-11-22T18:32:11.898Z,100.00
2022-11-22T18:34:38.834Z,100.00
2022-11-22T18:37:05.484Z,100.00
2022-11-22T18:39:34.292Z,100.00
2022-11-22T18:42:01.342Z,100.00
2022-11-22T18:44:28.045Z,100.00
2022-11-22T18:46:54.606Z,100.00
2022-11-22T18:49:21.089Z,100.00
2022-11-22T18:51:47.623Z,100.00
2022-11-22T18:54:14.326Z,100.00
2022-11-22T18:56:41.142Z,100.00
2022-11-22T18:59:08.202Z,100.00
2022-11-22T19:01:34.831Z,100.00
2022-11-22T19:04:01.848Z,100.00
2022-11-22T19:06:28.374Z,100.00
2022-11-22T19:08:55.321Z,100.00
2022-11-22T19:11:21.906Z,100.00
2022-11-22T19:13:48.590Z,100.00
2022-11-22T19:16:16.871Z,100.00
2022-11-22T19:18:43.775Z,100.00
2022-11-22T19:21:17.715Z,100.00
2022-11-22T19:23:44.455Z,100.00
2022-11-22T19:26:14.102Z,100.00
2022-11-22T19:28:41.428Z,100.00
2022-11-22T19:31:13.541Z,100.00
2022-11-22T19:33:40.346Z,100.00
2022-11-22T19:36:12.099Z,100.00
2022-11-22T19:38:38.791Z,100.00
2022-11-22T19:41:19.391Z,100.00
2022-11-22T19:43:46.471Z,100.00
2022-11-22T19:46:13.023Z,100.00
2022-11-22T19:48:45.341Z,100.00
2022-11-22T19:51:14.245Z,100.00
2022-11-22T19:53:41.794Z,100.00
2022-11-22T19:56:14.490Z,100.00
2022-11-22T19:58:41.183Z,100.00
2022-11-22T20:01:12.258Z,100.00
2022-11-22T20:03:40.533Z,100.00
2022-11-22T20:06:08.557Z,100.00
2022-11-22T20:08:35.070Z,100.00
2022-11-22T20:11:02.541Z,100.00
2022-11-22T20:13:29.152Z,100.00
2022-11-22T20:15:56.567Z,100.00
2022-11-22T20:18:23.101Z,100.00
2022-11-22T20:20:49.613Z,100.00
2022-11-22T20:23:16.146Z,100.00
2022-11-22T20:25:42.642Z,100.00
2022-11-22T20:28:09.141Z,100.00
2022-11-22T20:30:35.621Z,100.00
2022-11-22T20:33:02.414Z,100.00
2022-11-22T20:35:28.907Z,100.00
2022-11-22T20:38:58.604Z,100.00
2022-11-22T20:41:26.895Z,100.00
2022-11-22T20:43:53.337Z,100.00
2022-11-22T20:46:21.222Z,100.00
2022-11-22T20:48:48.359Z,100.00
2022-11-22T20:51:16.973Z,100.00
2022-11-22T20:53:43.482Z,100.00
2022-11-22T20:56:10.134Z,100.00
2022-11-22T20:58:36.629Z,100.00
2022-11-22T21:01:12.431Z,100.00
2022-11-22T21:03:38.932Z,100.00
2022-11-22T21:06:05.572Z,100.00
2022-11-22T21:08:32.727Z,100.00
2022-11-22T21:11:14.189Z,100.00
2022-11-22T21:13:40.969Z,100.00
2022-11-22T21:16:22.256Z,100.00
2022-11-22T21:19:04.974Z,100.00
2022-11-22T21:21:32.232Z,100.00
2022-11-22T21:23:59.940Z,100.00
2022-11-22T21:26:26.631Z,100.00
2022-11-22T21:28:53.274Z,100.00
2022-11-22T21:31:19.946Z,100.00
2022-11-22T21:33:46.575Z,100.00
2022-11-22T21:36:13.167Z,100.00
2022-11-22T21:38:39.889Z,100.00
2022-11-22T21:41:37.759Z,100.00
2022-11-22T21:43:55.743Z,100.00
2022-11-22T21:46:22.271Z,100.00
2022-11-22T21:48:50.175Z,100.00
2022-11-22T21:51:16.905Z,100.00
2022-11-22T21:53:43.406Z,100.00
2022-11-22T21:56:09.897Z,100.00
2022-11-22T21:58:36.364Z,100.00
2022-11-22T22:01:07.249Z,100.00
2022-11-22T22:03:36.173Z,100.00
2022-11-22T22:06:02.628Z,100.00
2022-11-22T22:08:30.334Z,100.00
2022-11-22T22:11:00.942Z,100.00
2022-11-22T22:13:28.805Z,100.00
2022-11-22T22:15:57.247Z,100.00
2022-11-22T22:18:24.320Z,100.00
2022-11-22T22:20:59.454Z,100.00
2022-11-22T22:23:25.998Z,100.00
2022-11-22T22:25:57.176Z,100.00
2022-11-22T22:28:24.248Z,100.00
2022-11-22T22:30:50.778Z,100.00
2022-11-22T22:33:17.289Z,100.00
2022-11-22T22:35:43.759Z,100.00
2022-11-22T22:38:10.230Z,100.00
2022-11-22T22:40:36.703Z,100.00
2022-11-22T22:43:03.176Z,100.00
2022-11-22T22:45:29.723Z,100.00
2022-11-22T22:47:56.201Z,100.00
2022-11-22T22:50:22.683Z,100.00
2022-11-22T22:52:49.205Z,100.00
2022-11-22T22:55:15.722Z,100.00
2022-11-22T22:57:42.206Z,100.00
2022-11-22T23:00:09.346Z,100.00
2022-11-22T23:02:36.823Z,100.00
2022-11-22T23:05:03.409Z,100.00
2022-11-22T23:07:30.247Z,100.00
2022-11-22T23:09:56.759Z,100.00
2022-11-22T23:12:23.314Z,100.00
2022-11-22T23:14:49.834Z,100.00
2022-11-22T23:17:16.341Z,100.00
2022-11-22T23:19:42.898Z,100.00
2022-11-22T23:22:09.385Z,100.00
2022-11-22T23:24:35.850Z,100.00
2022-11-22T23:27:02.371Z,100.00
2022-11-22T23:29:29.157Z,100.00
2022-11-22T23:31:55.845Z,100.00
2022-11-22T23:34:22.343Z,100.00
2022-11-22T23:36:48.889Z,100.00
2022-11-22T23:39:15.420Z,100.00
2022-11-22T23:41:41.909Z,100.00
2022-11-22T23:44:08.486Z,100.00
2022-11-22T23:46:35.003Z,100.00
2022-11-22T23:49:01.601Z,100.00
2022-11-22T23:51:28.693Z,100.00
2022-11-22T23:53:59.519Z,100.00
2022-11-22T23:56:26.328Z,100.00
2022-11-22T23:58:52.947Z,100.00
